METAR LOCAUX

2019/07/21 22:00 LFST 212200Z AUTO 32003KT CAVOK 19/15 Q1023 NOSIG
2019/07/21 21:50 EDSB 212150Z AUTO VRB01KT 9999 // NCD 19/17 Q1023
2019/07/21 22:00 LFGA 212200Z AUTO 28008KT CAVOK 22/15 Q1023
www.noaa.gov

Ne pas utiliser pour préparer ou effectuer un vol: Utilisez la documentation officielle disponible sur aviation.meteo.fr (Aéroweb)


"Le soleil du matin ne dure pas forcément toute la journée."

Animation satellite IR

Meteociel.fr

"Derrière chaque nuage se cache le ciel bleu."

Radar pluie

Infoclimat.fr

"Si tu veux l’arc-en-ciel, tu dois supporter la pluie."
Dolly Parton

Nébulosité (octas)

Meteociel.fr

"Le soleil est souvent obscurci par les nuages et la raison par les passions."
Démophile

Impacts de foudre

www.meteo60.fr

"Celui que frappe la foudre n'entend pas le tonnerre."

Vigilance météo

vigilance-meteo.fr

"Tout nuage n'enfante pas une tempête."
William Shakespeare

TAF locaux

2019/07/21 18:21 TAF LFST 211700Z 2118/2218 VRB04KT CAVOK
2019/07/21 21:57 TAF AMD TAF AMD EDSB 212152Z 2121/2218 CNL
www.noaa.gov

Ne pas utiliser pour préparer ou effectuer un vol: Utilisez la documentation officielle disponible sur aviation.meteo.fr (Aéroweb)


"Les jours où le ciel est gris, le soleil n'a pas disparu à tout jamais."
Arnaud Desjardins

Prévisions 7 jours


Meteoblue.com

"Quand les crapauds chantent, le beau temps s'avance !"